createdAt,value
2022-10-28T00:00:48.785Z,101266.28
2022-10-28T00:03:15.499Z,101261.47
2022-10-28T00:05:42.065Z,101264.13
2022-10-28T00:08:08.539Z,101269.50
2022-10-28T00:10:35.043Z,101266.56
2022-10-28T00:13:01.467Z,101271.53
2022-10-28T00:15:28.017Z,101272.38
2022-10-28T00:17:54.774Z,101273.63
2022-10-28T00:20:21.408Z,101272.19
2022-10-28T00:22:47.864Z,101267.69
2022-10-28T00:25:14.336Z,101261.22
2022-10-28T00:27:40.826Z,101263.41
2022-10-28T00:30:07.765Z,101266.44
2022-10-28T00:32:34.192Z,101265.84
2022-10-28T00:35:00.643Z,101259.50
2022-10-28T00:37:27.069Z,101268.53
2022-10-28T00:39:53.520Z,101268.59
2022-10-28T00:42:22.143Z,101267.88
2022-10-28T00:45:02.398Z,101272.25
2022-10-28T00:47:36.597Z,101270.88
2022-10-28T00:50:21.167Z,101272.13
2022-10-28T00:52:55.922Z,101270.59
2022-10-28T00:55:24.189Z,101263.38
2022-10-28T00:57:50.887Z,101257.88
2022-10-28T01:00:17.697Z,101263.94
2022-10-28T01:02:48.071Z,101262.19
2022-10-28T01:05:17.819Z,101253.59
2022-10-28T01:07:44.836Z,101249.09
2022-10-28T01:10:13.558Z,101246.13
2022-10-28T01:13:05.141Z,101247.13
2022-10-28T01:16:07.303Z,101247.53
2022-10-28T01:18:44.315Z,101253.16
2022-10-28T01:21:31.380Z,101245.22
2022-10-28T01:24:29.741Z,101246.13
2022-10-28T01:27:33.523Z,101244.13
2022-10-28T01:30:08.403Z,101239.34
2022-10-28T01:33:09.509Z,101241.38
2022-10-28T01:36:01.163Z,101246.47
2022-10-28T01:39:09.554Z,101238.69
2022-10-28T01:41:47.771Z,101249.28
2022-10-28T01:44:42.963Z,101244.06
2022-10-28T01:47:14.716Z,101236.97
2022-10-28T01:50:02.094Z,101241.81
2022-10-28T01:52:30.862Z,101229.06
2022-10-28T01:55:09.706Z,101230.94
2022-10-28T01:57:38.885Z,101238.41
2022-10-28T02:00:06.068Z,101232.91
2022-10-28T02:02:39.649Z,101233.63
2022-10-28T02:05:39.837Z,101224.97
2022-10-28T02:08:18.502Z,101229.41
2022-10-28T02:11:00.276Z,101226.72
2022-10-28T02:13:55.964Z,101226.97
2022-10-28T02:16:59.893Z,101232.09
2022-10-28T02:19:45.058Z,101228.69
2022-10-28T02:22:30.397Z,101228.06
2022-10-28T02:25:09.188Z,101220.31
2022-10-28T02:27:40.359Z,101224.16
2022-10-28T02:30:11.706Z,101222.31
2022-10-28T02:32:41.132Z,101217.69
2022-10-28T02:35:14.447Z,101216.09
2022-10-28T02:37:43.885Z,101210.44
2022-10-28T02:40:18.368Z,101210.72
2022-10-28T02:42:50.017Z,101207.34
2022-10-28T02:45:21.132Z,101208.63
2022-10-28T02:48:05.248Z,101203.16
2022-10-28T02:50:36.183Z,101186.50
2022-10-28T02:53:10.604Z,101197.09
2022-10-28T02:55:42.494Z,101196.25
2022-10-28T02:58:10.570Z,101202.91
2022-10-28T03:00:37.116Z,101216.09
2022-10-28T03:03:04.072Z,101212.38
2022-10-28T03:05:30.548Z,101218.59
2022-10-28T03:07:57.131Z,101211.53
2022-10-28T03:10:23.642Z,101212.38
2022-10-28T03:12:50.058Z,101217.59
2022-10-28T03:15:16.466Z,101219.47
2022-10-28T03:17:42.914Z,101196.41
2022-10-28T03:20:10.038Z,101197.41
2022-10-28T03:22:36.463Z,101193.88
2022-10-28T03:25:03.341Z,101194.06
2022-10-28T03:27:29.786Z,101198.00
2022-10-28T03:29:56.262Z,101198.81
2022-10-28T03:34:53.964Z,101200.78
2022-10-28T03:37:20.418Z,101193.88
2022-10-28T03:39:46.858Z,101192.28
2022-10-28T03:42:13.332Z,101202.63
2022-10-28T03:44:39.739Z,101209.13
2022-10-28T03:47:06.205Z,101204.16
2022-10-28T03:49:32.618Z,101189.91
2022-10-28T03:51:59.021Z,101199.94
2022-10-28T03:54:25.492Z,101193.38
2022-10-28T03:56:51.904Z,101196.22
2022-10-28T03:59:20.226Z,101194.53
2022-10-28T04:01:47.098Z,101196.22
2022-10-28T04:04:13.598Z,101193.84
2022-10-28T04:06:40.016Z,101200.31
2022-10-28T04:09:06.464Z,101196.25
2022-10-28T04:11:32.943Z,101198.34
2022-10-28T04:13:59.448Z,101199.19
2022-10-28T04:16:26.055Z,101201.56
2022-10-28T04:18:52.554Z,101198.31
2022-10-28T04:21:19.046Z,101210.03
2022-10-28T04:23:45.454Z,101200.97
2022-10-28T04:26:11.947Z,101199.41
2022-10-28T04:28:38.394Z,101193.50
2022-10-28T04:31:05.026Z,101193.09
2022-10-28T04:33:31.520Z,101182.19
2022-10-28T04:35:58.103Z,101180.97
2022-10-28T04:40:56.157Z,101177.28
2022-10-28T04:43:22.590Z,101173.31
2022-10-28T04:45:49.036Z,101168.00
2022-10-28T04:48:15.468Z,101164.16
2022-10-28T04:50:42.094Z,101159.22
2022-10-28T04:53:12.335Z,101162.34
2022-10-28T04:55:39.214Z,101148.34
2022-10-28T04:58:05.738Z,101155.16
2022-10-28T05:00:32.299Z,101158.13
2022-10-28T05:03:01.874Z,101159.94
2022-10-28T05:05:28.376Z,101163.47
2022-10-28T05:07:55.183Z,101168.44
2022-10-28T05:10:21.937Z,101165.06
2022-10-28T05:12:48.380Z,101161.78
2022-10-28T05:15:15.710Z,101167.03
2022-10-28T05:17:47.082Z,101159.94
2022-10-28T05:20:14.473Z,101164.88
2022-10-28T05:22:53.725Z,101167.28
2022-10-28T05:25:21.592Z,101163.03
2022-10-28T05:27:48.058Z,101164.88
2022-10-28T05:30:15.223Z,101172.34
2022-10-28T05:32:41.800Z,101173.66
2022-10-28T05:35:09.406Z,101177.44
2022-10-28T05:37:36.204Z,101177.16
2022-10-28T05:40:03.093Z,101165.72
2022-10-28T05:42:29.563Z,101165.72
2022-10-28T05:44:55.973Z,101168.00
2022-10-28T05:47:22.430Z,101166.03
2022-10-28T05:49:48.849Z,101163.34
2022-10-28T05:52:15.262Z,101163.63
2022-10-28T05:54:41.674Z,101162.63
2022-10-28T05:57:08.112Z,101163.09
2022-10-28T05:59:34.522Z,101158.13
2022-10-28T06:02:00.955Z,101159.38
2022-10-28T06:04:27.484Z,101174.06
2022-10-28T06:06:56.788Z,101169.25
2022-10-28T06:09:23.271Z,101164.34
2022-10-28T06:11:48.217Z,101173.34
2022-10-28T06:14:14.630Z,101161.47
2022-10-28T06:16:42.260Z,101173.06
2022-10-28T06:19:08.769Z,101168.38
2022-10-28T06:21:35.229Z,101167.41
2022-10-28T06:24:01.789Z,101172.78
2022-10-28T06:26:28.234Z,101184.78
2022-10-28T06:28:54.773Z,101180.97
2022-10-28T06:31:21.240Z,101187.88
2022-10-28T06:33:47.646Z,101189.47
2022-10-28T06:36:14.147Z,101198.75
2022-10-28T06:38:40.679Z,101190.03
2022-10-28T06:41:07.112Z,101195.38
2022-10-28T06:43:33.554Z,101189.91
2022-10-28T06:46:01.786Z,101192.31
2022-10-28T06:48:29.727Z,101193.88
2022-10-28T06:50:57.577Z,101196.56
2022-10-28T06:53:24.957Z,101192.06
2022-10-28T06:55:56.288Z,101193.56
2022-10-28T06:58:22.718Z,101200.22
2022-10-28T07:00:49.204Z,101190.94
2022-10-28T07:03:16.208Z,101198.59
2022-10-28T07:05:42.964Z,101207.63
2022-10-28T07:08:09.420Z,101214.47
2022-10-28T07:10:35.849Z,101217.69
2022-10-28T07:13:02.301Z,101227.03
2022-10-28T07:15:28.831Z,101221.50
2022-10-28T07:17:57.437Z,101221.81
2022-10-28T07:20:26.117Z,101226.34
2022-10-28T07:23:00.306Z,101223.50
2022-10-28T07:25:30.730Z,101223.66
2022-10-28T07:27:58.582Z,101228.72
2022-10-28T07:30:25.705Z,101234.16
2022-10-28T07:32:52.685Z,101234.97
2022-10-28T07:35:19.960Z,101232.59
2022-10-28T07:37:46.522Z,101232.47
2022-10-28T07:40:13.402Z,101229.09
2022-10-28T07:42:39.890Z,101226.41
2022-10-28T07:45:06.757Z,101236.19
2022-10-28T07:47:33.235Z,101236.16
2022-10-28T07:49:59.720Z,101241.16
2022-10-28T07:52:26.182Z,101232.78
2022-10-28T07:54:52.661Z,101232.53
2022-10-28T07:57:19.437Z,101224.59
2022-10-28T07:59:45.868Z,101222.34
2022-10-28T08:02:17.578Z,101225.19
2022-10-28T08:04:44.261Z,101225.03
2022-10-28T08:07:11.772Z,101223.06
2022-10-28T08:09:38.497Z,101220.94
2022-10-28T08:12:05.748Z,101215.41
2022-10-28T08:14:32.265Z,101222.06
2022-10-28T08:16:58.708Z,101216.41
2022-10-28T08:19:25.139Z,101213.31
2022-10-28T08:21:51.617Z,101219.78
2022-10-28T08:24:18.057Z,101222.34
2022-10-28T08:26:44.478Z,101231.66
2022-10-28T08:29:12.164Z,101224.75
2022-10-28T08:31:39.332Z,101226.03
2022-10-28T08:34:06.576Z,101228.13
2022-10-28T08:36:33.724Z,101226.25
2022-10-28T08:39:01.609Z,101226.28
2022-10-28T08:41:37.430Z,101220.13
2022-10-28T08:44:31.894Z,101224.97
2022-10-28T08:47:01.274Z,101216.22
2022-10-28T08:49:32.142Z,101208.28
2022-10-28T08:52:00.808Z,101212.31
2022-10-28T08:54:29.409Z,101214.03
2022-10-28T08:57:00.681Z,101215.81
2022-10-28T08:59:37.684Z,101204.72
2022-10-28T09:02:26.030Z,101201.69
2022-10-28T09:05:21.864Z,101204.19
2022-10-28T09:07:48.684Z,101211.88
2022-10-28T09:10:17.158Z,101206.31
2022-10-28T09:13:24.726Z,101195.03
2022-10-28T09:16:02.446Z,101192.31
2022-10-28T09:18:39.571Z,101196.31
2022-10-28T09:21:15.858Z,101195.25
2022-10-28T09:23:58.550Z,101205.25
2022-10-28T09:26:40.258Z,101194.34
2022-10-28T09:29:43.237Z,101197.22
2022-10-28T09:32:25.944Z,101193.38
2022-10-28T09:35:09.567Z,101195.22
2022-10-28T09:37:40.398Z,101187.84
2022-10-28T09:40:19.615Z,101188.16
2022-10-28T09:42:58.608Z,101190.25
2022-10-28T09:45:32.238Z,101179.94
2022-10-28T09:48:03.347Z,101183.03
2022-10-28T09:50:31.859Z,101176.38
2022-10-28T09:53:53.132Z,101169.91
2022-10-28T09:57:01.001Z,101170.38
2022-10-28T09:59:27.693Z,101157.13
2022-10-28T10:01:54.657Z,101153.75
2022-10-28T10:04:34.366Z,101149.00
2022-10-28T10:07:14.997Z,101155.41
2022-10-28T10:09:44.031Z,101144.97
2022-10-28T10:12:12.441Z,101140.19
2022-10-28T10:14:47.756Z,101145.22
2022-10-28T10:17:26.966Z,101134.44
2022-10-28T10:20:11.583Z,101135.06
2022-10-28T10:22:40.708Z,101127.81
2022-10-28T10:25:19.361Z,101126.78
2022-10-28T10:28:14.391Z,101116.16
2022-10-28T10:30:53.427Z,101117.19
2022-10-28T10:33:31.164Z,101111.66
2022-10-28T10:36:02.241Z,101108.25
2022-10-28T10:38:30.330Z,101106.25
2022-10-28T10:40:57.221Z,101100.28
2022-10-28T10:43:31.001Z,101097.28
2022-10-28T10:46:13.812Z,101099.63
2022-10-28T10:48:40.812Z,101100.19
2022-10-28T10:51:12.542Z,101096.50
2022-10-28T10:53:40.027Z,101097.69
2022-10-28T10:56:10.657Z,101077.22
2022-10-28T10:58:51.534Z,101079.91
2022-10-28T11:01:22.165Z,101076.72
2022-10-28T11:06:34.087Z,101064.22
2022-10-28T11:09:25.431Z,101073.53
2022-10-28T11:11:55.429Z,101056.97
2022-10-28T11:14:29.295Z,101059.34
2022-10-28T11:16:58.435Z,101057.47
2022-10-28T11:19:33.771Z,101060.19
2022-10-28T11:22:17.131Z,101057.63
2022-10-28T11:25:14.075Z,101045.47
2022-10-28T11:27:43.325Z,101055.28
2022-10-28T11:30:19.866Z,101062.88
2022-10-28T11:33:28.663Z,101047.00
2022-10-28T11:35:59.454Z,101051.38
2022-10-28T11:38:32.030Z,101037.84
2022-10-28T11:41:29.032Z,101034.09
2022-10-28T11:44:03.829Z,101035.75
2022-10-28T11:46:53.338Z,101027.28
2022-10-28T11:49:32.000Z,101031.19
2022-10-28T11:52:20.250Z,101028.34
2022-10-28T11:55:03.334Z,101043.53
2022-10-28T11:57:58.481Z,101033.88
2022-10-28T12:00:40.773Z,101026.84
2022-10-28T12:03:19.324Z,101030.41
2022-10-28T12:06:13.389Z,101024.97
2022-10-28T12:09:01.431Z,101027.28
2022-10-28T12:11:48.811Z,101013.91
2022-10-28T12:14:22.125Z,101008.63
2022-10-28T12:16:59.057Z,101008.78
2022-10-28T12:19:31.632Z,101001.31
2022-10-28T12:22:14.771Z,101002.63
2022-10-28T12:24:44.639Z,101004.91
2022-10-28T12:27:18.267Z,100991.94
2022-10-28T12:29:51.249Z,100990.81
2022-10-28T12:32:27.708Z,100984.06
2022-10-28T12:34:56.891Z,100990.00
2022-10-28T12:37:41.094Z,100991.75
2022-10-28T12:40:24.479Z,100991.97
2022-10-28T12:43:17.008Z,100986.72
2022-10-28T12:45:43.893Z,100986.41
2022-10-28T12:48:30.042Z,100986.41
2022-10-28T12:51:21.347Z,100987.63
2022-10-28T12:53:58.346Z,100991.72
2022-10-28T12:56:31.779Z,100983.84
2022-10-28T12:59:06.501Z,100976.69
2022-10-28T13:01:35.717Z,100980.94
2022-10-28T13:04:02.745Z,100986.31
2022-10-28T13:07:00.563Z,100982.75
2022-10-28T13:09:46.879Z,100986.41
2022-10-28T13:12:45.002Z,100986.31
2022-10-28T13:15:26.792Z,100988.72
2022-10-28T13:18:14.961Z,100982.94
2022-10-28T13:20:57.668Z,100977.81
2022-10-28T13:23:57.990Z,100984.06
2022-10-28T13:26:31.743Z,100976.72
2022-10-28T13:29:01.248Z,100977.06
2022-10-28T13:31:46.883Z,100985.47
2022-10-28T13:34:16.039Z,100987.47
2022-10-28T13:36:45.107Z,100981.91
2022-10-28T13:39:23.325Z,100978.53
2022-10-28T13:42:12.610Z,100979.03
2022-10-28T13:44:50.891Z,100974.50
2022-10-28T13:47:17.245Z,100974.84
2022-10-28T13:50:13.181Z,100981.72
2022-10-28T13:52:41.629Z,100985.00
2022-10-28T13:55:14.216Z,100983.72
2022-10-28T13:57:48.116Z,100992.34
2022-10-28T14:00:17.549Z,100979.56
2022-10-28T14:02:56.953Z,100989.06
2022-10-28T14:05:32.555Z,100985.16
2022-10-28T14:08:03.811Z,100983.50
2022-10-28T14:10:57.692Z,100978.75
2022-10-28T14:13:24.382Z,100980.47
2022-10-28T14:16:14.732Z,100986.63
2022-10-28T14:18:44.510Z,100990.44
2022-10-28T14:21:11.890Z,100989.34
2022-10-28T14:23:44.291Z,100990.34
2022-10-28T14:26:10.748Z,100990.69
2022-10-28T14:28:37.105Z,100988.81
2022-10-28T14:31:12.756Z,100986.28
2022-10-28T14:33:42.034Z,100985.09
2022-10-28T14:36:17.418Z,100981.81
2022-10-28T14:39:06.439Z,100978.47
2022-10-28T14:42:17.766Z,100984.94
2022-10-28T14:44:57.940Z,100982.69
2022-10-28T14:47:33.483Z,100983.25
2022-10-28T14:50:15.250Z,100988.00
2022-10-28T14:52:44.336Z,100990.69
2022-10-28T14:55:37.284Z,100984.31
2022-10-28T14:58:21.567Z,100993.06
2022-10-28T15:01:17.242Z,100988.84
2022-10-28T15:03:57.619Z,100986.66
2022-10-28T15:06:30.952Z,100993.41
2022-10-28T15:09:28.836Z,100994.59
2022-10-28T15:12:05.809Z,100983.66
2022-10-28T15:14:37.758Z,100992.25
2022-10-28T15:17:12.697Z,100981.25
2022-10-28T15:19:39.180Z,100990.72
2022-10-28T15:22:12.160Z,100988.88
2022-10-28T15:24:41.661Z,100980.28
2022-10-28T15:27:13.554Z,100997.00
2022-10-28T15:29:42.347Z,100978.41
2022-10-28T15:32:21.965Z,100985.31
2022-10-28T15:34:49.038Z,100979.78
2022-10-28T15:37:17.886Z,100969.13
2022-10-28T15:39:49.233Z,100979.41
2022-10-28T15:42:36.914Z,100977.25
2022-10-28T15:45:04.089Z,100970.81
2022-10-28T15:47:36.831Z,100972.53
2022-10-28T15:50:33.421Z,100972.50
2022-10-28T15:53:21.145Z,100973.69
2022-10-28T15:56:06.893Z,100977.56
2022-10-28T15:58:39.039Z,100965.41
2022-10-28T16:01:28.673Z,100973.88
2022-10-28T16:03:55.339Z,100967.72
2022-10-28T16:06:33.739Z,100972.00
2022-10-28T16:09:09.247Z,100975.84
2022-10-28T16:11:41.271Z,100978.50
2022-10-28T16:14:33.699Z,100972.81
2022-10-28T16:17:16.532Z,100977.41
2022-10-28T16:20:00.764Z,100985.78
2022-10-28T16:22:29.762Z,100981.56
2022-10-28T16:24:57.395Z,100993.69
2022-10-28T16:27:27.273Z,100994.00
2022-10-28T16:29:54.066Z,100997.22
2022-10-28T16:32:27.526Z,100991.47
2022-10-28T16:34:55.192Z,100988.78
2022-10-28T16:37:27.513Z,100996.66
2022-10-28T16:39:54.768Z,101000.06
2022-10-28T16:42:22.531Z,101008.47
2022-10-28T16:44:49.038Z,100999.63
2022-10-28T16:47:18.042Z,101009.75
2022-10-28T16:49:45.213Z,101002.91
2022-10-28T16:52:17.578Z,101008.13
2022-10-28T16:54:44.053Z,101000.00
2022-10-28T16:57:10.613Z,100997.84
2022-10-28T16:59:37.238Z,101005.47
2022-10-28T17:02:05.127Z,100994.44
2022-10-28T17:04:31.829Z,100993.78
2022-10-28T17:06:58.242Z,100997.88
2022-10-28T17:09:24.663Z,100991.91
2022-10-28T17:11:51.082Z,100996.44
2022-10-28T17:14:17.510Z,100992.53
2022-10-28T17:16:43.947Z,100990.69
2022-10-28T17:19:10.452Z,100996.94
2022-10-28T17:21:36.859Z,101000.31
2022-10-28T17:24:04.325Z,100998.44
2022-10-28T17:26:30.799Z,100997.69
2022-10-28T17:28:57.212Z,101001.31
2022-10-28T17:31:25.183Z,101003.88
2022-10-28T17:33:55.537Z,101003.97
2022-10-28T17:36:23.130Z,101008.03
2022-10-28T17:38:49.657Z,101006.16
2022-10-28T17:41:16.107Z,101014.59
2022-10-28T17:43:42.529Z,101011.09
2022-10-28T17:46:09.923Z,101004.59
2022-10-28T17:48:36.744Z,101002.25
2022-10-28T17:51:03.271Z,101002.47
2022-10-28T17:53:29.679Z,101001.13
2022-10-28T17:55:57.929Z,101006.69
2022-10-28T17:58:25.045Z,101000.25
2022-10-28T18:01:02.522Z,101005.16
2022-10-28T18:03:32.725Z,100998.41
2022-10-28T18:06:03.585Z,100991.19
2022-10-28T18:08:34.395Z,100999.31
2022-10-28T18:11:00.893Z,101003.88
2022-10-28T18:13:28.460Z,100990.13
2022-10-28T18:15:54.954Z,100996.97
2022-10-28T18:18:21.406Z,100986.88
2022-10-28T18:20:55.160Z,100992.94
2022-10-28T18:23:23.089Z,100984.69
2022-10-28T18:26:01.195Z,100992.56
2022-10-28T18:28:29.804Z,100983.84
2022-10-28T18:31:07.921Z,100985.97
2022-10-28T18:33:34.671Z,100977.75
2022-10-28T18:36:10.889Z,100981.88
2022-10-28T18:38:37.348Z,100985.91
2022-10-28T18:41:04.026Z,100981.09
2022-10-28T18:43:30.562Z,100988.41
2022-10-28T18:46:02.213Z,100984.97
2022-10-28T18:48:30.339Z,100988.19
2022-10-28T18:51:01.876Z,100984.69
2022-10-28T18:53:28.649Z,100979.94
2022-10-28T18:56:00.682Z,100981.09
2022-10-28T18:58:27.651Z,100977.63
2022-10-28T19:00:54.059Z,100978.22
2022-10-28T19:03:23.450Z,100970.59
2022-10-28T19:05:49.872Z,100979.34
2022-10-28T19:08:16.307Z,100977.97
2022-10-28T19:10:42.738Z,100972.22
2022-10-28T19:13:09.217Z,100980.81
2022-10-28T19:15:40.042Z,100979.75
2022-10-28T19:18:06.483Z,100979.22
2022-10-28T19:20:32.901Z,100976.91
2022-10-28T19:22:59.651Z,100977.81
2022-10-28T19:25:26.271Z,100972.56
2022-10-28T19:27:52.922Z,100971.09
2022-10-28T19:30:19.429Z,100971.19
2022-10-28T19:32:45.852Z,100970.41
2022-10-28T19:35:12.279Z,100972.34
2022-10-28T19:37:38.718Z,100975.22
2022-10-28T19:40:05.588Z,100976.91
2022-10-28T19:42:32.008Z,100981.47
2022-10-28T19:45:00.775Z,100988.75
2022-10-28T19:47:27.390Z,100989.78
2022-10-28T19:49:53.808Z,100996.59
2022-10-28T19:52:20.231Z,100990.44
2022-10-28T19:54:46.643Z,100992.69
2022-10-28T19:59:44.453Z,100999.16
2022-10-28T20:02:11.431Z,101005.25
2022-10-28T20:04:37.959Z,101010.69
2022-10-28T20:07:04.388Z,101013.38
2022-10-28T20:09:30.809Z,101008.69
2022-10-28T20:11:57.257Z,101012.31
2022-10-28T20:14:23.738Z,101008.75
2022-10-28T20:16:50.218Z,101007.47
2022-10-28T20:19:16.625Z,101011.84
2022-10-28T20:21:44.496Z,101016.00
2022-10-28T20:24:10.913Z,101018.00
2022-10-28T20:26:38.622Z,101025.00
2022-10-28T20:29:06.770Z,101022.69
2022-10-28T20:31:33.529Z,101027.59
2022-10-28T20:34:03.438Z,101019.59
2022-10-28T20:36:31.032Z,101022.06
2022-10-28T20:39:02.693Z,101025.06
2022-10-28T20:41:31.812Z,101026.59
2022-10-28T20:43:58.427Z,101024.38
2022-10-28T20:46:26.052Z,101031.00
2022-10-28T20:48:54.212Z,101037.13
2022-10-28T20:51:21.926Z,101038.09
2022-10-28T20:53:48.409Z,101035.66
2022-10-28T20:56:17.407Z,101034.84
2022-10-28T20:58:43.928Z,101041.78
2022-10-28T21:01:20.951Z,101042.00
2022-10-28T21:03:48.294Z,101041.56
2022-10-28T21:06:16.506Z,101038.59
2022-10-28T21:08:43.730Z,101054.44
2022-10-28T21:11:13.505Z,101050.91
2022-10-28T21:13:42.189Z,101052.16
2022-10-28T21:16:11.008Z,101060.72
2022-10-28T21:18:38.914Z,101053.50
2022-10-28T21:21:05.770Z,101055.25
2022-10-28T21:23:32.693Z,101057.44
2022-10-28T21:26:01.517Z,101057.88
2022-10-28T21:28:29.989Z,101066.50
2022-10-28T21:31:17.028Z,101059.59
2022-10-28T21:33:44.139Z,101067.78
2022-10-28T21:36:15.838Z,101064.38
2022-10-28T21:38:42.501Z,101055.50
2022-10-28T21:41:11.860Z,101055.63
2022-10-28T21:43:40.403Z,101050.72
2022-10-28T21:46:07.388Z,101047.00
2022-10-28T21:48:35.307Z,101045.47
2022-10-28T21:51:04.826Z,101044.31
2022-10-28T21:53:34.556Z,101051.34
2022-10-28T21:56:17.448Z,101048.09
2022-10-28T21:58:46.399Z,101051.75
2022-10-28T22:01:17.553Z,101061.75
2022-10-28T22:03:44.061Z,101066.59
2022-10-28T22:06:10.994Z,101057.75
2022-10-28T22:08:37.481Z,101060.72
2022-10-28T22:11:07.093Z,101052.72
2022-10-28T22:13:34.233Z,101059.94
2022-10-28T22:16:06.334Z,101060.75
2022-10-28T22:18:35.234Z,101065.47
2022-10-28T22:21:12.801Z,101054.75
2022-10-28T22:23:39.191Z,101057.72
2022-10-28T22:26:07.815Z,101067.78
2022-10-28T22:28:34.599Z,101073.56
2022-10-28T22:31:06.102Z,101066.19
2022-10-28T22:33:33.454Z,101069.44
2022-10-28T22:36:06.377Z,101070.25
2022-10-28T22:38:32.911Z,101068.84
2022-10-28T22:41:13.654Z,101058.41
2022-10-28T22:43:41.958Z,101061.28
2022-10-28T22:46:09.637Z,101064.91
2022-10-28T22:48:36.398Z,101067.88
2022-10-28T22:51:03.499Z,101065.03
2022-10-28T22:53:29.964Z,101056.31
2022-10-28T22:55:57.260Z,101058.59
2022-10-28T22:58:24.605Z,101050.53
2022-10-28T23:00:51.231Z,101062.44
2022-10-28T23:03:18.067Z,101058.16
2022-10-28T23:05:44.602Z,101052.47
2022-10-28T23:08:14.832Z,101049.91
2022-10-28T23:10:41.264Z,101052.38
2022-10-28T23:13:11.448Z,101064.56
2022-10-28T23:15:37.974Z,101071.91
2022-10-28T23:18:04.401Z,101064.09
2022-10-28T23:20:30.850Z,101081.78
2022-10-28T23:22:57.337Z,101081.50
2022-10-28T23:25:23.811Z,101061.72
2022-10-28T23:27:50.244Z,101072.72
2022-10-28T23:30:16.836Z,101083.50
2022-10-28T23:32:43.253Z,101081.13
2022-10-28T23:35:09.957Z,101078.97
2022-10-28T23:37:36.665Z,101084.91
2022-10-28T23:40:03.659Z,101075.31
2022-10-28T23:42:30.386Z,101089.03
2022-10-28T23:44:56.818Z,101097.31
2022-10-28T23:47:23.238Z,101096.34
2022-10-28T23:49:49.680Z,101090.53
2022-10-28T23:52:16.126Z,101105.78
2022-10-28T23:54:42.561Z,101094.06
2022-10-28T23:57:09.061Z,101099.19
2022-10-28T23:59:35.499Z,101095.63
